Comercinho, Brazil
Current Conditions -  °F | °C
As of 6:00 PM on Wednesday 26 Nov 2014 (Local Time) from SBQV Reporting Station
Scattered Clouds Scattered Clouds  
Wind Chill: 81°   Ceiling: Unl
Heat Index: 81°   Visibility: 6mi
Dew Point: 57°   Wind: 9mph
Humidity: 45%   Direction: 40°NE
Pressure: 30"   Gusts: NA
Location:  16.3°S, 41.79°W
Report Text: SBQV 262000Z 04008KT 9999 SCT020 27/14 Q1016
Loading
Personal Weather Stations






























Interactive Weather Map New forecast layout! Learn more

10-Day Weather Forecast

Advertisements
Track Severe Weather on mobile